Time;durP1;ratioP1;P1;durP2;ratioP2;P2;SDS_P1;SDS_P2;PMS_P1;PMS_P2;Temp;Humidity;BMP_temperature;BMP_pressure;BME280_temperature;BME280_humidity;BME280_pressure;Samples;Min_cycle;Max_cycle;Signal;HPM_P1;HPM_P2
2022/04/01 00:01:40;;;;;;;25.87;13.27;;;;;;;;;;5059431;28;20199;-83
2022/04/01 00:04:07;;;;;;;26.70;13.73;;;;;;;;;;5057024;28;20210;-83
2022/04/01 00:06:34;;;;;;;22.70;12.63;;;;;;;;;;5057870;28;20225;-84
2022/04/01 00:09:02;;;;;;;25.63;13.60;;;;;;;;;;5060968;28;20204;-83
2022/04/01 00:11:29;;;;;;;23.17;13.10;;;;;;;;;;5061565;28;20222;-82
2022/04/01 00:13:56;;;;;;;24.70;12.53;;;;;;;;;;5061191;28;20210;-82
2022/04/01 00:16:23;;;;;;;22.37;12.30;;;;;;;;;;5061573;28;20218;-84
2022/04/01 00:18:52;;;;;;;22.07;13.03;;;;;;;;;;5059322;28;20286;-81
2022/04/01 00:21:19;;;;;;;25.67;12.87;;;;;;;;;;5059904;28;20253;-81
2022/04/01 00:23:47;;;;;;;19.07;11.37;;;;;;;;;;5061231;28;20308;-83
2022/04/01 00:26:14;;;;;;;20.47;11.70;;;;;;;;;;5059691;28;20199;-82
2022/04/01 00:28:41;;;;;;;21.57;12.17;;;;;;;;;;5062767;28;20210;-83
2022/04/01 00:31:09;;;;;;;19.87;11.67;;;;;;;;;;5058500;28;20222;-83
2022/04/01 00:33:36;;;;;;;19.00;11.53;;;;;;;;;;5058583;28;20246;-83
2022/04/01 00:36:05;;;;;;;25.90;11.80;;;;;;;;;;5061067;28;20267;-83
2022/04/01 00:38:32;;;;;;;19.60;10.87;;;;;;;;;;5058354;28;20203;-82
2022/04/01 00:41:00;;;;;;;20.27;11.33;;;;;;;;;;5055984;28;20709;-83
2022/04/01 00:43:27;;;;;;;19.43;11.27;;;;;;;;;;5060772;28;20199;-82
2022/04/01 00:45:55;;;;;;;18.47;10.50;;;;;;;;;;5059057;28;20245;-84
2022/04/01 00:48:37;;;;;;;17.40;10.23;;;;;;;;;;5058787;28;20245;-82
2022/04/01 00:51:05;;;;;;;21.33;12.03;;;;;;;;;;5057718;28;20282;-83
2022/04/01 00:53:33;;;;;;;19.93;11.07;;;;;;;;;;5058824;28;20199;-83
2022/04/01 00:56:00;;;;;;;17.33;10.43;;;;;;;;;;5061544;28;20686;-81
2022/04/01 00:58:30;;;;;;;17.77;10.33;;;;;;;;;;5065926;28;20199;-80
2022/04/01 01:00:57;;;;;;;17.23;10.03;;;;;;;;;;5059059;28;20218;-84
2022/04/01 01:03:24;;;;;;;19.17;10.10;;;;;;;;;;5059942;28;20263;-84
2022/04/01 01:05:52;;;;;;;18.03;10.17;;;;;;;;;;5060142;28;20269;-83
2022/04/01 01:08:20;;;;;;;17.70;10.03;;;;;;;;;;5058950;28;20195;-83
2022/04/01 01:10:48;;;;;;;16.00;9.50;;;;;;;;;;5059790;28;20272;-83
2022/04/01 01:13:15;;;;;;;16.03;9.57;;;;;;;;;;5057829;28;20203;-84
2022/04/01 01:15:43;;;;;;;15.70;9.50;;;;;;;;;;5057762;28;20211;-84
2022/04/01 01:18:11;;;;;;;17.20;9.27;;;;;;;;;;5062763;28;20234;-82
2022/04/01 01:20:38;;;;;;;15.03;9.23;;;;;;;;;;5055916;28;20644;-82
2022/04/01 01:23:06;;;;;;;13.83;9.00;;;;;;;;;;5053596;28;20635;-83
2022/04/01 01:25:39;;;;;;;16.00;9.57;;;;;;;;;;5057251;28;20246;-83
2022/04/01 01:28:07;;;;;;;15.63;9.43;;;;;;;;;;5047545;28;20211;-82
2022/04/01 01:30:34;;;;;;;14.87;9.00;;;;;;;;;;5045966;28;20317;-83
2022/04/01 01:33:02;;;;;;;15.37;9.03;;;;;;;;;;5046867;28;20663;-83
2022/04/01 01:35:29;;;;;;;15.43;9.63;;;;;;;;;;5048781;28;20206;-83
2022/04/01 01:37:57;;;;;;;15.27;9.20;;;;;;;;;;5049769;28;20222;-82
2022/04/01 01:40:24;;;;;;;16.07;8.73;;;;;;;;;;5047829;28;20713;-82
2022/04/01 01:42:53;;;;;;;14.07;8.17;;;;;;;;;;5046741;28;20215;-82
2022/04/01 01:45:20;;;;;;;13.73;8.47;;;;;;;;;;5048495;28;20307;-82
2022/04/01 01:47:47;;;;;;;13.70;8.20;;;;;;;;;;5050571;28;20207;-81
2022/04/01 01:55:44;;;;;;;14.57;8.40;;;;;;;;;;5052257;28;20244;-83
2022/04/01 01:58:13;;;;;;;13.23;8.13;;;;;;;;;;5053286;28;20575;-82
2022/04/01 02:00:40;;;;;;;10.93;6.97;;;;;;;;;;5050184;28;20230;-83
2022/04/01 02:03:08;;;;;;;12.33;7.40;;;;;;;;;;5053292;28;20207;-82
2022/04/01 02:05:36;;;;;;;12.83;7.23;;;;;;;;;;5053972;28;20214;-82
2022/04/01 02:08:05;;;;;;;14.07;8.37;;;;;;;;;;5055184;28;20256;-83
2022/04/01 02:10:32;;;;;;;11.90;7.40;;;;;;;;;;5103369;22;20336;-78
2022/04/01 02:12:59;;;;;;;12.93;7.30;;;;;;;;;;5018291;28;20298;-77
2022/04/01 02:15:28;;;;;;;12.00;6.37;;;;;;;;;;5011972;28;20210;-77
2022/04/01 02:17:55;;;;;;;12.30;6.90;;;;;;;;;;5014740;28;20279;-78
2022/04/01 02:20:22;;;;;;;10.47;6.67;;;;;;;;;;5015778;28;20216;-78
2022/04/01 02:22:52;;;;;;;11.60;7.20;;;;;;;;;;5019015;28;20665;-76
2022/04/01 02:25:19;;;;;;;11.00;6.90;;;;;;;;;;5018384;28;20566;-78
2022/04/01 02:27:46;;;;;;;10.57;6.83;;;;;;;;;;5014676;28;20303;-77
2022/04/01 02:30:13;;;;;;;11.93;6.97;;;;;;;;;;5020556;28;20723;-77
2022/04/01 02:32:42;;;;;;;12.07;7.17;;;;;;;;;;5016726;28;20270;-76
2022/04/01 02:35:11;;;;;;;10.87;6.73;;;;;;;;;;5019102;28;20203;-76
2022/04/01 02:37:39;;;;;;;14.67;7.17;;;;;;;;;;5015882;28;20202;-77
2022/04/01 02:40:07;;;;;;;13.33;6.53;;;;;;;;;;5017087;28;20548;-77
2022/04/01 02:42:34;;;;;;;9.40;6.10;;;;;;;;;;5018286;28;20204;-75
2022/04/01 02:45:01;;;;;;;11.40;6.80;;;;;;;;;;5016837;28;20834;-76
2022/04/01 02:47:28;;;;;;;13.93;6.13;;;;;;;;;;5021184;28;20210;-76
2022/04/01 02:49:57;;;;;;;11.83;7.00;;;;;;;;;;5016843;28;20714;-77
2022/04/01 02:52:24;;;;;;;10.67;6.53;;;;;;;;;;5014870;28;20575;-76
2022/04/01 02:54:52;;;;;;;15.73;7.20;;;;;;;;;;5016708;28;20223;-76
2022/04/01 02:57:20;;;;;;;11.27;6.93;;;;;;;;;;5014067;28;20216;-76
2022/04/01 02:59:48;;;;;;;13.63;7.13;;;;;;;;;;5018560;28;20591;-77
2022/04/01 03:02:15;;;;;;;12.27;6.73;;;;;;;;;;5018840;28;20208;-76
2022/04/01 03:04:43;;;;;;;11.87;6.73;;;;;;;;;;5018557;28;20211;-77
2022/04/01 03:07:13;;;;;;;11.93;6.87;;;;;;;;;;5016034;28;20202;-76
2022/04/01 03:09:40;;;;;;;15.87;6.87;;;;;;;;;;5014304;28;20241;-77
2022/04/01 03:12:08;;;;;;;14.00;7.20;;;;;;;;;;5020264;28;20204;-78
2022/04/01 03:14:36;;;;;;;12.80;7.27;;;;;;;;;;5018729;28;20203;-77
2022/04/01 03:17:03;;;;;;;13.70;7.67;;;;;;;;;;5017907;28;20206;-77
2022/04/01 03:19:31;;;;;;;13.77;7.07;;;;;;;;;;5017453;28;20701;-78
2022/04/01 03:22:00;;;;;;;12.87;6.97;;;;;;;;;;5017645;28;20294;-77
2022/04/01 03:24:28;;;;;;;12.73;7.37;;;;;;;;;;5014930;28;20195;-76
2022/04/01 03:26:55;;;;;;;15.57;7.80;;;;;;;;;;5013542;28;20204;-76
2022/04/01 03:29:23;;;;;;;12.90;7.63;;;;;;;;;;5018470;28;20223;-76
2022/04/01 03:31:51;;;;;;;14.80;7.77;;;;;;;;;;5020174;28;20208;-75
2022/04/01 03:34:18;;;;;;;14.50;7.17;;;;;;;;;;5012768;28;20210;-77
2022/04/01 03:36:46;;;;;;;12.90;7.47;;;;;;;;;;5018036;28;21497;-76
2022/04/01 03:39:13;;;;;;;13.77;7.63;;;;;;;;;;5014812;28;20231;-78
2022/04/01 03:41:41;;;;;;;14.87;7.87;;;;;;;;;;5016941;28;20205;-78
2022/04/01 03:44:09;;;;;;;12.27;7.20;;;;;;;;;;5019247;28;20330;-79
2022/04/01 03:46:44;;;;;;;17.77;7.37;;;;;;;;;;5015031;28;20604;-79
2022/04/01 03:49:14;;;;;;;12.50;7.10;;;;;;;;;;5017986;28;20697;-77
2022/04/01 03:51:44;;;;;;;17.30;7.80;;;;;;;;;;5015077;28;20348;-77
2022/04/01 03:54:12;;;;;;;13.73;8.00;;;;;;;;;;5017059;28;20259;-77
2022/04/01 03:56:39;;;;;;;13.90;7.20;;;;;;;;;;5020270;28;20236;-76
2022/04/01 03:59:11;;;;;;;11.60;6.73;;;;;;;;;;5018014;28;20285;-77
2022/04/01 04:01:38;;;;;;;13.30;7.63;;;;;;;;;;5019763;28;20200;-77
2022/04/01 04:04:06;;;;;;;14.33;7.80;;;;;;;;;;5018330;28;20208;-78
2022/04/01 04:06:34;;;;;;;13.53;8.00;;;;;;;;;;5020256;28;20204;-77
2022/04/01 04:09:02;;;;;;;11.57;6.97;;;;;;;;;;5022527;28;20227;-76
2022/04/01 04:11:29;;;;;;;13.10;6.80;;;;;;;;;;5020774;28;20220;-77
2022/04/01 04:13:57;;;;;;;14.67;6.87;;;;;;;;;;5016044;28;20208;-77
2022/04/01 04:16:29;;;;;;;17.00;7.20;;;;;;;;;;5020761;28;20200;-78
2022/04/01 04:19:01;;;;;;;18.07;7.30;;;;;;;;;;5023375;28;20231;-78
2022/04/01 04:21:30;;;;;;;13.80;7.20;;;;;;;;;;5023468;28;20188;-79
2022/04/01 04:23:59;;;;;;;11.83;6.90;;;;;;;;;;5019769;28;20662;-79
2022/04/01 04:26:29;;;;;;;12.63;7.10;;;;;;;;;;5023846;28;20204;-78
2022/04/01 04:29:01;;;;;;;12.00;6.30;;;;;;;;;;5025964;28;20216;-77
2022/04/01 04:31:31;;;;;;;15.07;6.93;;;;;;;;;;5026547;28;20302;-79
2022/04/01 04:33:58;;;;;;;13.23;6.77;;;;;;;;;;5025024;28;20287;-78
2022/04/01 04:36:36;;;;;;;12.80;6.57;;;;;;;;;;5025739;28;20927;-78
2022/04/01 04:39:04;;;;;;;13.43;6.80;;;;;;;;;;5020938;28;20357;-78
2022/04/01 04:41:33;;;;;;;11.10;6.43;;;;;;;;;;5019767;28;20562;-78
2022/04/01 04:44:00;;;;;;;12.47;6.67;;;;;;;;;;5021418;28;20206;-79
2022/04/01 04:46:30;;;;;;;13.70;6.47;;;;;;;;;;5022414;28;20241;-76
2022/04/01 04:48:58;;;;;;;10.57;6.10;;;;;;;;;;5015943;28;20224;-78
2022/04/01 04:51:26;;;;;;;11.50;6.33;;;;;;;;;;5020181;28;20238;-78
2022/04/01 04:53:53;;;;;;;12.23;6.37;;;;;;;;;;5016854;28;20200;-77
2022/04/01 04:56:20;;;;;;;14.17;6.73;;;;;;;;;;5018140;28;20204;-78
2022/04/01 04:59:08;;;;;;;11.47;5.97;;;;;;;;;;5020729;28;20233;-80
2022/04/01 05:13:55;;;;;;;10.20;5.30;;;;;;;;;;5017964;28;20238;-78
2022/04/01 05:16:26;;;;;;;13.10;6.03;;;;;;;;;;5019690;28;20203;-77
2022/04/01 05:18:57;;;;;;;12.97;6.17;;;;;;;;;;5026483;28;20334;-78
2022/04/01 05:21:26;;;;;;;10.13;5.33;;;;;;;;;;5020550;28;20210;-79
2022/04/01 05:23:58;;;;;;;11.20;5.77;;;;;;;;;;5020403;28;20576;-76
2022/04/01 05:26:38;;;;;;;9.50;5.83;;;;;;;;;;5023075;28;20451;-76
2022/04/01 05:29:13;;;;;;;11.40;5.30;;;;;;;;;;5020518;28;20478;-76
2022/04/01 05:31:44;;;;;;;9.70;5.50;;;;;;;;;;5020526;28;20229;-79
2022/04/01 05:34:16;;;;;;;10.53;5.63;;;;;;;;;;5021012;28;20466;-78
2022/04/01 05:36:43;;;;;;;10.70;5.70;;;;;;;;;;5022638;28;20206;-78
2022/04/01 05:39:13;;;;;;;9.53;5.40;;;;;;;;;;5019335;28;20251;-78
2022/04/01 05:41:41;;;;;;;11.30;5.30;;;;;;;;;;5020078;28;20365;-77
2022/04/01 05:44:11;;;;;;;8.63;5.23;;;;;;;;;;5012690;28;20290;-79
2022/04/01 05:46:39;;;;;;;10.63;5.27;;;;;;;;;;5018160;28;20519;-78
2022/04/01 05:49:07;;;;;;;12.23;5.77;;;;;;;;;;5021045;28;20220;-81
2022/04/01 05:51:36;;;;;;;11.83;4.97;;;;;;;;;;5019089;28;20710;-79
2022/04/01 05:54:03;;;;;;;12.60;5.50;;;;;;;;;;5019640;28;20246;-78
2022/04/01 05:56:32;;;;;;;8.30;5.10;;;;;;;;;;5019476;28;20290;-77
2022/04/01 05:58:59;;;;;;;8.33;5.20;;;;;;;;;;5016898;28;20654;-79
2022/04/01 06:01:32;;;;;;;7.93;4.63;;;;;;;;;;5017757;28;20201;-78
2022/04/01 06:04:17;;;;;;;9.97;4.87;;;;;;;;;;5023214;28;20772;-77
2022/04/01 06:06:44;;;;;;;9.10;5.50;;;;;;;;;;5018770;28;20208;-78
2022/04/01 06:09:19;;;;;;;9.07;5.23;;;;;;;;;;5026216;28;20697;-78
2022/04/01 06:11:46;;;;;;;10.50;4.87;;;;;;;;;;5022445;28;20314;-78
2022/04/01 06:14:25;;;;;;;8.57;4.63;;;;;;;;;;5023650;28;20207;-79
2022/04/01 06:16:59;;;;;;;9.57;5.10;;;;;;;;;;5020825;28;20210;-77
2022/04/01 06:19:28;;;;;;;8.47;4.90;;;;;;;;;;5020779;28;20330;-79
2022/04/01 06:22:03;;;;;;;9.03;5.17;;;;;;;;;;5021973;28;20738;-79
2022/04/01 06:24:33;;;;;;;9.03;5.10;;;;;;;;;;5022613;28;20257;-79
2022/04/01 06:27:01;;;;;;;14.07;5.13;;;;;;;;;;5022181;28;20203;-78
2022/04/01 06:29:46;;;;;;;10.67;5.10;;;;;;;;;;5023431;28;20227;-78
2022/04/01 06:32:22;;;;;;;6.80;4.40;;;;;;;;;;5020056;28;20219;-77
2022/04/01 06:34:56;;;;;;;11.07;5.37;;;;;;;;;;5020705;28;20667;-77
2022/04/01 06:37:24;;;;;;;9.23;5.10;;;;;;;;;;5022182;28;20219;-78
2022/04/01 06:39:59;;;;;;;10.13;5.30;;;;;;;;;;5020590;28;20234;-78
2022/04/01 06:42:28;;;;;;;12.97;4.30;;;;;;;;;;5020247;28;20199;-77
2022/04/01 06:44:55;;;;;;;10.53;5.13;;;;;;;;;;5020419;28;20200;-78
2022/04/01 06:47:23;;;;;;;7.77;4.70;;;;;;;;;;5022287;28;20204;-77
2022/04/01 06:49:51;;;;;;;7.47;4.40;;;;;;;;;;5020535;28;20231;-79
2022/04/01 06:52:19;;;;;;;6.97;4.80;;;;;;;;;;5018833;28;20307;-79
2022/04/01 06:54:47;;;;;;;7.70;4.60;;;;;;;;;;5019763;28;20234;-77
2022/04/01 06:57:15;;;;;;;11.17;4.80;;;;;;;;;;5020569;28;20199;-76
2022/04/01 06:59:42;;;;;;;8.37;4.60;;;;;;;;;;5015096;28;20277;-76
2022/04/01 07:02:09;;;;;;;7.63;4.50;;;;;;;;;;5018085;28;20211;-77
2022/04/01 07:04:38;;;;;;;7.60;4.33;;;;;;;;;;5017579;28;20232;-77
2022/04/01 07:07:06;;;;;;;7.60;4.53;;;;;;;;;;5018204;28;20242;-79
2022/04/01 07:09:34;;;;;;;8.67;4.13;;;;;;;;;;5018291;28;20306;-78
2022/04/01 07:12:01;;;;;;;5.47;3.70;;;;;;;;;;5016396;28;20255;-77
2022/04/01 07:14:28;;;;;;;4.93;3.50;;;;;;;;;;5016649;28;20210;-76
2022/04/01 07:16:55;;;;;;;7.23;3.53;;;;;;;;;;5019505;28;20254;-75
2022/04/01 07:19:23;;;;;;;7.20;4.10;;;;;;;;;;5015009;28;20230;-76
2022/04/01 07:21:51;;;;;;;7.07;4.40;;;;;;;;;;5023329;28;20204;-77
2022/04/01 07:24:18;;;;;;;9.03;4.23;;;;;;;;;;5019788;28;20268;-77
2022/04/01 07:26:46;;;;;;;7.83;4.33;;;;;;;;;;5024948;28;20383;-76
2022/04/01 07:29:13;;;;;;;5.63;3.57;;;;;;;;;;5021191;28;20323;-77
2022/04/01 07:34:30;;;;;;;7.20;4.30;;;;;;;;;;5021309;28;20226;-77
2022/04/01 07:36:59;;;;;;;6.83;4.10;;;;;;;;;;5014150;28;20211;-77
2022/04/01 07:39:26;;;;;;;7.00;4.10;;;;;;;;;;5019704;28;20717;-77
2022/04/01 07:41:53;;;;;;;7.00;4.33;;;;;;;;;;5021631;28;20667;-76
2022/04/01 07:44:20;;;;;;;9.03;4.63;;;;;;;;;;5025036;28;20291;-78
2022/04/01 07:46:48;;;;;;;7.63;4.50;;;;;;;;;;5023986;28;20212;-77
2022/04/01 07:49:15;;;;;;;6.53;3.97;;;;;;;;;;5021928;28;20224;-78
2022/04/01 07:51:43;;;;;;;8.47;4.73;;;;;;;;;;5018274;28;20318;-77
2022/04/01 07:54:12;;;;;;;8.13;4.10;;;;;;;;;;5023194;28;20627;-76
2022/04/01 07:56:40;;;;;;;5.80;3.70;;;;;;;;;;5020642;28;20210;-77
2022/04/01 07:59:08;;;;;;;11.53;5.87;;;;;;;;;;5027188;28;20314;-78
2022/04/01 08:01:35;;;;;;;7.50;4.17;;;;;;;;;;5022944;28;20756;-78
2022/04/01 08:04:02;;;;;;;6.87;4.07;;;;;;;;;;5025328;28;20208;-78
2022/04/01 08:06:30;;;;;;;8.37;4.50;;;;;;;;;;5020219;28;20734;-78
2022/04/01 08:08:58;;;;;;;7.23;4.03;;;;;;;;;;5022002;28;20234;-77
2022/04/01 08:13:56;;;;;;;6.23;4.03;;;;;;;;;;5004338;28;20299;-79
2022/04/01 08:16:23;;;;;;;6.60;4.27;;;;;;;;;;5006099;28;20284;-80
2022/04/01 08:18:51;;;;;;;6.83;3.70;;;;;;;;;;5013258;28;20296;-79
2022/04/01 08:21:20;;;;;;;6.17;3.73;;;;;;;;;;5006332;28;20279;-78
2022/04/01 08:23:47;;;;;;;6.97;3.90;;;;;;;;;;5007399;28;20216;-80
2022/04/01 08:26:14;;;;;;;5.90;3.73;;;;;;;;;;5007832;28;20213;-79
2022/04/01 08:28:42;;;;;;;6.00;4.00;;;;;;;;;;5014718;28;20205;-80
2022/04/01 08:31:11;;;;;;;5.73;3.50;;;;;;;;;;5020746;28;20237;-80
2022/04/01 08:33:38;;;;;;;6.37;3.63;;;;;;;;;;5011085;28;20247;-78
2022/04/01 08:36:05;;;;;;;6.43;3.70;;;;;;;;;;5006125;28;20205;-79
2022/04/01 08:38:33;;;;;;;6.33;3.63;;;;;;;;;;5005273;28;20671;-80
2022/04/01 08:41:00;;;;;;;8.10;4.50;;;;;;;;;;5005877;28;20201;-79
2022/04/01 08:43:28;;;;;;;5.27;3.30;;;;;;;;;;5013522;28;20223;-79
2022/04/01 08:45:56;;;;;;;6.23;3.77;;;;;;;;;;5008207;28;20297;-82
2022/04/01 08:48:25;;;;;;;7.23;3.97;;;;;;;;;;5010124;28;20240;-79
2022/04/01 08:50:52;;;;;;;8.43;3.70;;;;;;;;;;5007198;28;20702;-80
2022/04/01 08:53:20;;;;;;;5.20;3.07;;;;;;;;;;5010062;28;20251;-81
2022/04/01 08:55:48;;;;;;;6.50;3.63;;;;;;;;;;5015899;28;20243;-82
2022/04/01 08:58:17;;;;;;;9.03;4.17;;;;;;;;;;5021647;28;20227;-83
2022/04/01 09:00:45;;;;;;;8.03;4.30;;;;;;;;;;5015209;28;20291;-79
2022/04/01 09:03:13;;;;;;;6.77;4.00;;;;;;;;;;5011972;28;20304;-81
2022/04/01 09:05:45;;;;;;;6.97;3.87;;;;;;;;;;5006000;28;20295;-79
2022/04/01 09:08:14;;;;;;;6.87;4.27;;;;;;;;;;5011310;28;20317;-79
2022/04/01 09:10:55;;;;;;;7.93;4.33;;;;;;;;;;5006567;28;20289;-81
2022/04/01 09:13:23;;;;;;;6.70;4.53;;;;;;;;;;5025011;28;20394;-81
2022/04/01 09:15:51;;;;;;;8.43;4.70;;;;;;;;;;5026084;28;20254;-80
2022/04/01 09:18:33;;;;;;;7.60;4.43;;;;;;;;;;5036928;28;20211;-79
2022/04/01 09:21:02;;;;;;;7.30;4.43;;;;;;;;;;5031053;28;20196;-80
2022/04/01 09:23:30;;;;;;;7.03;4.47;;;;;;;;;;5028121;28;20200;-79
2022/04/01 09:25:57;;;;;;;7.23;4.30;;;;;;;;;;5030781;28;20239;-79
2022/04/01 09:28:26;;;;;;;6.83;3.97;;;;;;;;;;5029047;28;20212;-79
2022/04/01 09:30:58;;;;;;;7.93;4.53;;;;;;;;;;5027688;28;20235;-79
2022/04/01 09:33:29;;;;;;;6.47;4.07;;;;;;;;;;5028186;28;20226;-78
2022/04/01 09:36:03;;;;;;;6.97;3.97;;;;;;;;;;5030748;28;20261;-80
2022/04/01 09:38:32;;;;;;;7.33;4.50;;;;;;;;;;5022427;28;20226;-81
2022/04/01 09:41:02;;;;;;;8.07;4.83;;;;;;;;;;5029904;28;20239;-79
2022/04/01 09:43:29;;;;;;;8.17;4.87;;;;;;;;;;5025622;28;20203;-81
2022/04/01 09:45:56;;;;;;;6.83;3.83;;;;;;;;;;5030461;28;20211;-80
2022/04/01 09:48:24;;;;;;;8.50;4.90;;;;;;;;;;5033012;28;20275;-78
2022/04/01 09:50:59;;;;;;;17.53;5.57;;;;;;;;;;5027611;28;20260;-82
2022/04/01 09:53:28;;;;;;;7.50;4.30;;;;;;;;;;5028950;28;20222;-79
2022/04/01 09:55:56;;;;;;;7.87;4.77;;;;;;;;;;5023672;28;20211;-80
2022/04/01 09:58:24;;;;;;;9.60;5.37;;;;;;;;;;5020641;28;20195;-78
2022/04/01 10:00:53;;;;;;;7.70;4.60;;;;;;;;;;5027999;28;20279;-81
2022/04/01 10:03:21;;;;;;;9.13;4.67;;;;;;;;;;5025896;28;20224;-78
2022/04/01 10:05:48;;;;;;;8.77;5.27;;;;;;;;;;5023412;28;20286;-84
2022/04/01 10:08:16;;;;;;;8.73;5.07;;;;;;;;;;5028049;28;20260;-77
2022/04/01 10:10:43;;;;;;;10.10;5.10;;;;;;;;;;5030081;28;20306;-80
2022/04/01 10:13:15;;;;;;;14.27;5.60;;;;;;;;;;5028521;28;20219;-80
2022/04/01 10:15:43;;;;;;;10.47;6.13;;;;;;;;;;5030291;28;20685;-81
2022/04/01 10:18:14;;;;;;;9.60;5.47;;;;;;;;;;5029589;28;20213;-81
2022/04/01 10:20:41;;;;;;;9.87;5.70;;;;;;;;;;5028654;28;20232;-80
2022/04/01 10:23:11;;;;;;;10.27;5.70;;;;;;;;;;5031439;28;20203;-79
2022/04/01 10:25:41;;;;;;;11.77;6.50;;;;;;;;;;5030314;28;20204;-82
2022/04/01 10:28:10;;;;;;;10.50;5.70;;;;;;;;;;5034797;28;20243;-83
2022/04/01 10:30:40;;;;;;;24.40;7.07;;;;;;;;;;5030015;28;20223;-79
2022/04/01 10:33:09;;;;;;;20.57;7.10;;;;;;;;;;5037619;28;20229;-79
2022/04/01 10:35:38;;;;;;;10.63;6.00;;;;;;;;;;5030663;28;20797;-79
2022/04/01 10:38:19;;;;;;;9.27;5.50;;;;;;;;;;5038102;28;20238;-79
2022/04/01 10:40:49;;;;;;;12.50;5.47;;;;;;;;;;5031982;28;20238;-79
2022/04/01 10:43:17;;;;;;;9.50;5.20;;;;;;;;;;5030223;28;20749;-80
2022/04/01 10:45:57;;;;;;;11.70;5.90;;;;;;;;;;5028419;28;20331;-80
2022/04/01 10:54:00;;;;;;;8.10;5.00;;;;;;;;;;5034622;28;20376;-80
2022/04/01 10:56:31;;;;;;;10.13;5.53;;;;;;;;;;5029055;28;20211;-82
2022/04/01 10:59:02;;;;;;;9.13;5.40;;;;;;;;;;5037863;28;20317;-80
2022/04/01 11:01:30;;;;;;;7.17;4.60;;;;;;;;;;5032068;28;20222;-83
2022/04/01 11:04:02;;;;;;;7.97;4.60;;;;;;;;;;5035411;28;20287;-81
2022/04/01 11:06:29;;;;;;;8.30;4.93;;;;;;;;;;5033195;28;20754;-80
2022/04/01 11:08:57;;;;;;;8.33;4.63;;;;;;;;;;5032406;28;20310;-82
2022/04/01 11:11:24;;;;;;;8.90;5.03;;;;;;;;;;5032708;28;20233;-81
2022/04/01 11:14:05;;;;;;;8.50;5.13;;;;;;;;;;5035128;28;20348;-82
2022/04/01 11:16:47;;;;;;;9.00;5.17;;;;;;;;;;5032746;28;20212;-80
2022/04/01 11:19:32;;;;;;;8.20;4.77;;;;;;;;;;5027097;28;20211;-80
2022/04/01 11:22:03;;;;;;;11.87;5.13;;;;;;;;;;5030205;28;20211;-79
2022/04/01 11:24:31;;;;;;;7.73;4.77;;;;;;;;;;5028073;28;20616;-84
2022/04/01 11:27:05;;;;;;;12.07;5.30;;;;;;;;;;5033870;28;20264;-83
2022/04/01 11:29:33;;;;;;;9.30;5.23;;;;;;;;;;5029060;28;20227;-82
2022/04/01 11:32:04;;;;;;;9.23;5.40;;;;;;;;;;5028768;28;20234;-81
2022/04/01 11:34:31;;;;;;;9.07;5.30;;;;;;;;;;5025092;28;20203;-80
2022/04/01 11:37:04;;;;;;;8.43;5.27;;;;;;;;;;5023189;28;20235;-81
2022/04/01 11:39:32;;;;;;;9.30;5.20;;;;;;;;;;5026113;28;20231;-80
2022/04/01 11:42:01;;;;;;;11.43;5.57;;;;;;;;;;5024695;28;20208;-80
2022/04/01 11:44:29;;;;;;;9.13;4.57;;;;;;;;;;5026792;28;20208;-80
2022/04/01 11:46:58;;;;;;;9.03;4.93;;;;;;;;;;5025025;28;20262;-81
2022/04/01 11:49:29;;;;;;;9.00;5.23;;;;;;;;;;5029105;28;20315;-81
2022/04/01 11:51:57;;;;;;;7.43;4.73;;;;;;;;;;5031160;28;20290;-81
2022/04/01 11:54:26;;;;;;;7.53;4.90;;;;;;;;;;5026357;28;20502;-79
2022/04/01 11:56:53;;;;;;;13.63;5.20;;;;;;;;;;5027158;28;20208;-81
2022/04/01 11:59:21;;;;;;;8.63;5.20;;;;;;;;;;5027424;28;20228;-81
2022/04/01 12:01:58;;;;;;;7.70;4.70;;;;;;;;;;5031904;28;20272;-82
2022/04/01 12:04:33;;;;;;;7.47;4.90;;;;;;;;;;5026418;28;20210;-79
2022/04/01 12:09:47;;;;;;;16.20;5.70;;;;;;;;;;5030724;28;20280;-81
2022/04/01 12:12:14;;;;;;;8.87;4.97;;;;;;;;;;5026489;28;20251;-80
2022/04/01 12:14:42;;;;;;;7.40;4.63;;;;;;;;;;5036393;28;20294;-81
2022/04/01 12:17:10;;;;;;;8.37;4.73;;;;;;;;;;5026082;28;20314;-82
2022/04/01 12:19:37;;;;;;;10.13;5.50;;;;;;;;;;5031822;28;20668;-80
2022/04/01 12:22:05;;;;;;;8.73;5.17;;;;;;;;;;5031747;28;20298;-79
2022/04/01 12:24:35;;;;;;;8.80;5.47;;;;;;;;;;5025691;28;20207;-80
2022/04/01 12:27:05;;;;;;;13.00;5.60;;;;;;;;;;5038733;28;20199;-81
2022/04/01 12:29:32;;;;;;;9.63;5.60;;;;;;;;;;5035702;28;20251;-80
2022/04/01 12:32:01;;;;;;;10.73;4.87;;;;;;;;;;5031653;28;20197;-80
2022/04/01 12:34:28;;;;;;;10.63;5.83;;;;;;;;;;5029350;28;20696;-81
2022/04/01 12:36:59;;;;;;;9.67;5.63;;;;;;;;;;5029458;28;20201;-79
2022/04/01 12:39:27;;;;;;;12.23;6.53;;;;;;;;;;5030863;28;20250;-80
2022/04/01 12:41:55;;;;;;;11.17;6.10;;;;;;;;;;5029546;28;20214;-83
2022/04/01 12:44:27;;;;;;;13.70;6.10;;;;;;;;;;5029806;28;20302;-82
2022/04/01 12:46:58;;;;;;;10.10;5.53;;;;;;;;;;5030563;28;20208;-80
2022/04/01 12:49:25;;;;;;;10.40;5.70;;;;;;;;;;5032795;28;20247;-81
2022/04/01 12:51:54;;;;;;;8.97;5.60;;;;;;;;;;5035040;28;20205;-80
2022/04/01 12:54:27;;;;;;;11.97;5.93;;;;;;;;;;5030973;28;20220;-80
2022/04/01 12:56:54;;;;;;;9.87;5.57;;;;;;;;;;5024676;28;20218;-80
2022/04/01 12:59:22;;;;;;;10.30;5.93;;;;;;;;;;5030114;28;20243;-80
2022/04/01 13:01:59;;;;;;;9.73;5.93;;;;;;;;;;5028072;28;21869;-79
2022/04/01 13:04:27;;;;;;;10.30;5.73;;;;;;;;;;5026879;28;20286;-80
2022/04/01 13:07:07;;;;;;;10.40;5.83;;;;;;;;;;5032109;28;20238;-81
2022/04/01 13:09:43;;;;;;;8.50;5.27;;;;;;;;;;5030921;28;20235;-80
2022/04/01 13:12:11;;;;;;;10.93;5.50;;;;;;;;;;5028533;28;20250;-80
2022/04/01 13:14:38;;;;;;;9.03;5.57;;;;;;;;;;5031935;28;20239;-81
2022/04/01 13:17:12;;;;;;;9.53;5.70;;;;;;;;;;5024773;28;20205;-80
2022/04/01 13:19:40;;;;;;;9.93;5.93;;;;;;;;;;5029003;28;20482;-80
2022/04/01 13:22:07;;;;;;;8.67;5.50;;;;;;;;;;5032107;28;20234;-80
2022/04/01 13:24:36;;;;;;;11.37;6.40;;;;;;;;;;5033389;28;20223;-81
2022/04/01 13:27:04;;;;;;;11.90;6.23;;;;;;;;;;5029318;28;20467;-80
2022/04/01 13:29:31;;;;;;;13.53;6.73;;;;;;;;;;5027569;28;21023;-80
2022/04/01 13:31:58;;;;;;;9.80;6.03;;;;;;;;;;5031768;28;20486;-79
2022/04/01 13:34:27;;;;;;;10.63;6.43;;;;;;;;;;5034775;28;20398;-80
2022/04/01 13:36:55;;;;;;;13.27;7.37;;;;;;;;;;5032914;28;20227;-80
2022/04/01 13:39:24;;;;;;;10.93;6.80;;;;;;;;;;5033463;28;20233;-81
2022/04/01 13:41:51;;;;;;;11.53;6.83;;;;;;;;;;5033293;28;20212;-79
2022/04/01 13:44:19;;;;;;;11.80;5.73;;;;;;;;;;5034454;28;20234;-80
2022/04/01 13:46:46;;;;;;;12.57;6.47;;;;;;;;;;5021285;28;20501;-79
2022/04/01 13:49:14;;;;;;;11.87;6.60;;;;;;;;;;5025913;28;20250;-79
2022/04/01 13:51:43;;;;;;;12.33;7.13;;;;;;;;;;5029360;28;20302;-76
2022/04/01 13:54:10;;;;;;;12.77;7.37;;;;;;;;;;5033912;28;20215;-78
2022/04/01 13:56:38;;;;;;;15.30;7.43;;;;;;;;;;5030530;28;20270;-78
2022/04/01 13:59:06;;;;;;;13.77;7.67;;;;;;;;;;5025252;28;20224;-76
2022/04/01 14:01:34;;;;;;;10.93;6.57;;;;;;;;;;5023403;28;20204;-76
2022/04/01 14:04:02;;;;;;;11.33;6.93;;;;;;;;;;5028838;28;20212;-76
2022/04/01 14:06:30;;;;;;;12.47;7.20;;;;;;;;;;5013549;28;20204;-76
2022/04/01 14:08:59;;;;;;;12.50;6.83;;;;;;;;;;5019167;28;20227;-79
2022/04/01 14:11:27;;;;;;;10.87;7.10;;;;;;;;;;5126122;22;20492;-85
2022/04/01 14:13:58;;;;;;;10.57;6.53;;;;;;;;;;5058982;28;20227;-84
2022/04/01 14:16:26;;;;;;;14.97;7.53;;;;;;;;;;5057050;28;20210;-82
2022/04/01 14:18:55;;;;;;;10.77;6.50;;;;;;;;;;5054397;28;20207;-82
2022/04/01 14:21:22;;;;;;;10.93;6.33;;;;;;;;;;5054166;28;20227;-81
2022/04/01 14:23:50;;;;;;;14.30;6.83;;;;;;;;;;5053279;28;20458;-82
2022/04/01 14:26:18;;;;;;;9.07;5.33;;;;;;;;;;5055381;28;20733;-82
2022/04/01 14:28:46;;;;;;;15.03;7.33;;;;;;;;;;5056591;28;20237;-82
2022/04/01 14:31:14;;;;;;;15.33;6.97;;;;;;;;;;5052502;28;20655;-84
2022/04/01 14:33:41;;;;;;;11.30;6.27;;;;;;;;;;5051367;28;20508;-83
2022/04/01 14:36:09;;;;;;;15.80;6.67;;;;;;;;;;5058335;28;20215;-82
2022/04/01 14:38:36;;;;;;;15.43;7.33;;;;;;;;;;5058520;28;20298;-82
2022/04/01 14:41:06;;;;;;;15.70;7.27;;;;;;;;;;5057149;28;20251;-83
2022/04/01 14:43:34;;;;;;;12.33;7.03;;;;;;;;;;5054009;28;20203;-82
2022/04/01 14:46:02;;;;;;;14.73;6.33;;;;;;;;;;5053848;28;20731;-83
2022/04/01 14:48:29;;;;;;;13.40;7.07;;;;;;;;;;5057532;28;20266;-83
2022/04/01 14:50:57;;;;;;;12.43;6.63;;;;;;;;;;5054853;28;20229;-84
2022/04/01 14:53:24;;;;;;;14.83;7.33;;;;;;;;;;5058710;28;20219;-84
2022/04/01 14:55:52;;;;;;;11.93;6.30;;;;;;;;;;5054960;28;20214;-84
2022/04/01 14:58:19;;;;;;;13.73;6.77;;;;;;;;;;5059025;28;20488;-83
2022/04/01 15:00:49;;;;;;;19.07;8.23;;;;;;;;;;5054138;28;20653;-83
2022/04/01 15:03:16;;;;;;;13.43;6.43;;;;;;;;;;5051672;28;20214;-82
2022/04/01 15:05:43;;;;;;;11.47;5.63;;;;;;;;;;5060071;28;20211;-82
2022/04/01 15:08:11;;;;;;;11.67;6.17;;;;;;;;;;5063850;28;20210;-83
2022/04/01 15:10:41;;;;;;;11.33;5.73;;;;;;;;;;5045579;28;20246;-83
2022/04/01 15:13:09;;;;;;;13.63;6.83;;;;;;;;;;5050990;28;20272;-82
2022/04/01 15:15:36;;;;;;;15.70;6.50;;;;;;;;;;5061213;28;20294;-83